createdAt,value
2023-05-23T00:02:13.617Z,6.10
2023-05-23T00:04:41.431Z,6.20
2023-05-23T00:07:09.679Z,6.00
2023-05-23T00:09:37.268Z,6.40
2023-05-23T00:12:05.289Z,6.00
2023-05-23T00:14:34.145Z,6.30
2023-05-23T00:17:03.255Z,5.90
2023-05-23T00:19:30.929Z,6.00
2023-05-23T00:21:58.847Z,6.60
2023-05-23T00:24:28.254Z,6.60
2023-05-23T00:26:57.613Z,5.90
2023-05-23T00:29:25.216Z,6.50
2023-05-23T00:31:52.883Z,6.20
2023-05-23T00:34:21.342Z,6.10
2023-05-23T00:36:50.667Z,6.30
2023-05-23T00:39:21.740Z,6.00
2023-05-23T00:41:52.380Z,6.40
2023-05-23T00:44:21.848Z,6.50
2023-05-23T00:46:55.740Z,6.50
2023-05-23T00:49:23.709Z,6.10
2023-05-23T00:51:52.190Z,6.00
2023-05-23T00:54:24.340Z,6.30
2023-05-23T00:56:51.973Z,6.50
2023-05-23T00:59:21.704Z,6.30
2023-05-23T01:01:49.747Z,6.80
2023-05-23T01:04:27.183Z,6.20
2023-05-23T01:06:55.741Z,6.80
2023-05-23T01:09:24.069Z,6.50
2023-05-23T01:12:00.238Z,6.30
2023-05-23T01:14:48.194Z,5.70
2023-05-23T01:17:20.333Z,6.30
2023-05-23T01:20:01.896Z,6.40
2023-05-23T01:22:57.762Z,6.00
2023-05-23T01:25:59.654Z,5.70
2023-05-23T01:31:03.182Z,6.00
2023-05-23T01:33:31.011Z,6.40
2023-05-23T01:35:58.939Z,6.20
2023-05-23T01:38:26.542Z,5.90
2023-05-23T01:40:54.253Z,5.10
2023-05-23T01:43:22.106Z,5.90
2023-05-23T01:45:54.039Z,5.80
2023-05-23T01:48:21.827Z,6.00
2023-05-23T01:50:49.484Z,5.70
2023-05-23T01:53:19.868Z,5.50
2023-05-23T01:55:47.894Z,5.60
2023-05-23T01:58:15.556Z,5.80
2023-05-23T02:00:43.210Z,5.70
2023-05-23T02:03:12.084Z,5.80
2023-05-23T02:05:40.044Z,5.80
2023-05-23T02:08:07.977Z,5.80
2023-05-23T02:10:38.781Z,5.90
2023-05-23T02:13:06.309Z,6.00
2023-05-23T02:15:33.911Z,6.10
2023-05-23T02:18:03.548Z,5.90
2023-05-23T02:20:31.753Z,5.80
2023-05-23T02:22:59.458Z,6.30
2023-05-23T02:25:27.087Z,5.80
2023-05-23T02:27:54.642Z,5.70
2023-05-23T02:30:22.836Z,6.20
2023-05-23T02:32:50.432Z,6.40
2023-05-23T02:35:17.997Z,6.20
2023-05-23T02:37:45.644Z,6.20
2023-05-23T02:40:13.399Z,5.90
2023-05-23T02:42:42.404Z,6.10
2023-05-23T02:45:10.384Z,5.50
2023-05-23T02:47:38.157Z,5.90
2023-05-23T02:50:06.682Z,5.90
2023-05-23T02:52:34.295Z,5.80
2023-05-23T02:55:02.203Z,5.40
2023-05-23T02:57:30.430Z,5.30
2023-05-23T02:59:58.039Z,5.60
2023-05-23T03:02:26.194Z,5.70
2023-05-23T03:04:53.819Z,6.00
2023-05-23T03:07:28.145Z,5.50
2023-05-23T03:09:56.875Z,5.30
2023-05-23T03:12:24.580Z,5.40
2023-05-23T03:14:52.183Z,5.10
2023-05-23T03:17:20.199Z,4.80
2023-05-23T03:19:47.968Z,5.20
2023-05-23T03:22:15.567Z,4.50
2023-05-23T03:24:43.329Z,5.10
2023-05-23T03:27:12.273Z,5.40
2023-05-23T03:29:39.933Z,5.00
2023-05-23T03:32:07.671Z,5.00
2023-05-23T03:34:36.767Z,4.60
2023-05-23T03:37:04.771Z,5.20
2023-05-23T03:39:32.386Z,5.40
2023-05-23T03:42:00.067Z,4.50
2023-05-23T03:44:28.267Z,5.00
2023-05-23T03:46:55.904Z,4.80
2023-05-23T03:49:23.452Z,5.40
2023-05-23T03:51:51.685Z,5.30
2023-05-23T03:54:19.263Z,5.50
2023-05-23T03:56:46.913Z,5.00
2023-05-23T03:59:15.535Z,5.00
2023-05-23T04:01:43.108Z,5.40
2023-05-23T04:04:10.896Z,5.50
2023-05-23T04:06:39.190Z,5.40
2023-05-23T04:09:06.775Z,4.80
2023-05-23T04:14:06.161Z,5.40
2023-05-23T04:16:36.378Z,5.50
2023-05-23T04:19:05.906Z,5.60
2023-05-23T04:21:34.426Z,5.30
2023-05-23T04:24:08.540Z,5.50
2023-05-23T04:26:36.864Z,5.70
2023-05-23T04:29:06.656Z,4.70
2023-05-23T04:31:36.276Z,5.00
2023-05-23T04:34:04.527Z,5.80
2023-05-23T04:36:42.739Z,5.80
2023-05-23T04:39:10.723Z,4.90
2023-05-23T04:41:45.672Z,5.50
2023-05-23T04:44:23.809Z,5.60
2023-05-23T04:47:11.985Z,5.00
2023-05-23T04:50:03.251Z,4.70
2023-05-23T04:52:34.356Z,4.70
2023-05-23T04:55:02.539Z,5.40
2023-05-23T04:57:30.515Z,5.10
2023-05-23T04:59:58.248Z,4.90
2023-05-23T05:02:27.887Z,5.40
2023-05-23T05:04:55.480Z,5.90
2023-05-23T05:07:23.292Z,5.60
2023-05-23T05:09:51.015Z,5.60
2023-05-23T05:12:18.755Z,5.50
2023-05-23T05:14:46.378Z,5.20
2023-05-23T05:17:14.115Z,5.40
2023-05-23T05:20:08.640Z,5.20
2023-05-23T05:22:40.550Z,5.20
2023-05-23T05:25:09.892Z,5.20
2023-05-23T05:27:40.328Z,5.20
2023-05-23T05:30:11.360Z,4.80
2023-05-23T05:32:48.593Z,5.50
2023-05-23T05:35:17.078Z,5.30
2023-05-23T05:37:46.021Z,4.70
2023-05-23T05:40:14.232Z,4.70
2023-05-23T05:42:46.220Z,5.10
2023-05-23T05:45:13.885Z,5.80
2023-05-23T05:47:43.446Z,5.30
2023-05-23T05:50:11.534Z,5.30
2023-05-23T05:52:40.293Z,5.30
2023-05-23T05:55:11.666Z,5.00
2023-05-23T05:57:40.943Z,5.20
2023-05-23T06:00:19.338Z,5.60
2023-05-23T06:02:51.990Z,5.90
2023-05-23T06:05:42.551Z,5.60
2023-05-23T06:08:10.600Z,5.50
2023-05-23T06:10:39.889Z,5.10
2023-05-23T06:13:07.810Z,5.70
2023-05-23T06:15:37.334Z,5.20
2023-05-23T06:18:04.901Z,5.20
2023-05-23T06:20:32.596Z,5.30
2023-05-23T06:23:04.361Z,5.40
2023-05-23T06:25:32.737Z,5.30
2023-05-23T06:28:01.044Z,5.10
2023-05-23T06:30:30.351Z,4.70
2023-05-23T06:32:58.159Z,5.60
2023-05-23T06:35:27.708Z,4.90
2023-05-23T06:37:56.585Z,5.40
2023-05-23T06:40:24.322Z,4.10
2023-05-23T06:42:52.157Z,4.70
2023-05-23T06:45:39.453Z,4.90
2023-05-23T06:48:07.008Z,5.30
2023-05-23T06:50:36.438Z,5.20
2023-05-23T06:53:04.660Z,5.10
2023-05-23T06:55:34.168Z,4.60
2023-05-23T06:58:04.284Z,5.10
2023-05-23T07:00:32.170Z,4.30
2023-05-23T07:03:07.574Z,4.40
2023-05-23T07:05:38.628Z,4.50
2023-05-23T07:08:11.471Z,4.40
2023-05-23T07:10:42.114Z,4.00
2023-05-23T07:13:26.683Z,4.10
2023-05-23T07:15:55.804Z,4.40
2023-05-23T07:18:24.241Z,4.50
2023-05-23T07:20:52.694Z,4.40
2023-05-23T07:23:23.976Z,4.70
2023-05-23T07:26:01.860Z,4.50
2023-05-23T07:28:37.818Z,4.50
2023-05-23T07:31:05.719Z,4.60
2023-05-23T07:33:34.721Z,4.50
2023-05-23T07:36:04.466Z,4.00
2023-05-23T07:38:32.085Z,3.90
2023-05-23T07:41:10.667Z,4.30
2023-05-23T07:43:39.709Z,3.50
2023-05-23T07:46:07.747Z,3.40
2023-05-23T07:48:36.071Z,2.90
2023-05-23T07:51:04.154Z,2.50
2023-05-23T07:53:31.950Z,3.00
2023-05-23T07:55:59.557Z,2.80
2023-05-23T07:58:29.692Z,2.90
2023-05-23T08:00:58.264Z,3.10
2023-05-23T08:03:45.969Z,2.90
2023-05-23T08:06:19.235Z,3.40
2023-05-23T08:08:46.862Z,3.10
2023-05-23T08:11:15.762Z,3.40
2023-05-23T08:13:46.734Z,3.80
2023-05-23T08:16:38.104Z,3.90
2023-05-23T08:19:21.876Z,4.10
2023-05-23T08:21:49.787Z,3.80
2023-05-23T08:24:17.362Z,3.90
2023-05-23T08:26:45.201Z,4.00
2023-05-23T08:29:14.686Z,3.70
2023-05-23T08:31:42.915Z,3.90
2023-05-23T08:34:11.664Z,4.20
2023-05-23T08:36:40.611Z,4.10
2023-05-23T08:39:11.871Z,4.20
2023-05-23T08:42:01.770Z,3.80
2023-05-23T08:44:29.278Z,3.70
2023-05-23T08:47:02.654Z,3.70
2023-05-23T08:49:44.195Z,3.50
2023-05-23T08:52:13.397Z,4.00
2023-05-23T08:54:42.944Z,3.30
2023-05-23T08:57:11.486Z,3.90
2023-05-23T08:59:41.522Z,2.90
2023-05-23T09:02:12.667Z,3.50
2023-05-23T09:04:40.369Z,3.00
2023-05-23T09:07:17.666Z,2.80
2023-05-23T09:09:45.892Z,3.30
2023-05-23T09:12:15.540Z,3.20
2023-05-23T09:14:44.814Z,3.00
2023-05-23T09:17:17.238Z,2.50
2023-05-23T09:19:47.246Z,2.90
2023-05-23T09:22:27.694Z,2.40
2023-05-23T09:25:02.184Z,2.80
2023-05-23T09:27:31.347Z,2.20
2023-05-23T09:29:59.061Z,2.60
2023-05-23T09:32:28.089Z,2.80
2023-05-23T09:34:56.480Z,2.40
2023-05-23T09:37:34.819Z,2.50
2023-05-23T09:40:10.660Z,2.30
2023-05-23T09:42:45.719Z,2.40
2023-05-23T09:45:13.739Z,2.40
2023-05-23T09:47:54.128Z,2.30
2023-05-23T09:50:23.570Z,2.40
2023-05-23T09:52:54.510Z,2.10
2023-05-23T09:55:22.058Z,2.40
2023-05-23T09:57:56.941Z,2.60
2023-05-23T10:00:25.637Z,2.70
2023-05-23T10:03:08.515Z,2.80
2023-05-23T10:05:49.869Z,2.80
2023-05-23T10:08:23.171Z,2.50
2023-05-23T10:10:58.845Z,2.80
2023-05-23T10:13:27.338Z,2.40
2023-05-23T10:16:22.463Z,2.70
2023-05-23T10:18:54.004Z,2.90
2023-05-23T10:21:25.029Z,3.00
2023-05-23T10:23:52.581Z,3.10
2023-05-23T10:26:20.115Z,2.60
2023-05-23T10:28:47.661Z,3.00
2023-05-23T10:31:15.298Z,2.70
2023-05-23T10:33:44.214Z,3.20
2023-05-23T10:36:34.318Z,2.60
2023-05-23T10:39:08.644Z,2.60
2023-05-23T10:41:43.180Z,2.70
2023-05-23T10:44:29.609Z,2.50
2023-05-23T10:47:04.715Z,2.70
2023-05-23T10:49:49.026Z,2.60
2023-05-23T10:52:17.619Z,2.80
2023-05-23T10:54:47.613Z,2.80
2023-05-23T10:57:21.220Z,2.40
2023-05-23T10:59:52.202Z,3.10
2023-05-23T11:02:20.606Z,2.70
2023-05-23T11:04:48.886Z,2.90
2023-05-23T11:08:08.291Z,2.70
2023-05-23T11:10:55.492Z,2.40
2023-05-23T11:13:23.533Z,2.50
2023-05-23T11:15:51.205Z,2.50
2023-05-23T11:18:31.265Z,2.40
2023-05-23T11:20:58.859Z,2.90
2023-05-23T11:23:26.409Z,2.30
2023-05-23T11:25:54.103Z,2.80
2023-05-23T11:28:21.992Z,2.60
2023-05-23T11:30:49.858Z,2.80
2023-05-23T11:33:18.963Z,2.70
2023-05-23T11:35:48.006Z,2.70
2023-05-23T11:38:16.774Z,3.10
2023-05-23T11:40:47.303Z,3.00
2023-05-23T11:43:16.997Z,2.80
2023-05-23T11:45:47.130Z,2.90
2023-05-23T11:48:16.775Z,3.00
2023-05-23T11:50:48.589Z,2.90
2023-05-23T11:53:18.798Z,3.20
2023-05-23T11:55:55.232Z,3.10
2023-05-23T11:58:23.141Z,2.70
2023-05-23T12:00:52.205Z,3.10
2023-05-23T12:03:21.568Z,3.00
2023-05-23T12:05:49.347Z,3.00
2023-05-23T12:08:16.918Z,2.80
2023-05-23T12:10:54.703Z,2.80
2023-05-23T12:13:24.548Z,2.80
2023-05-23T12:16:03.343Z,3.00
2023-05-23T12:18:32.623Z,3.20
2023-05-23T12:21:05.991Z,2.60
2023-05-23T12:23:35.142Z,2.70
2023-05-23T12:26:10.478Z,2.70
2023-05-23T12:28:48.128Z,3.40
2023-05-23T12:31:19.949Z,3.30
2023-05-23T12:33:48.190Z,2.90
2023-05-23T12:36:29.615Z,2.80
2023-05-23T12:39:04.744Z,3.10
2023-05-23T12:41:33.306Z,2.50
2023-05-23T12:44:01.013Z,2.80
2023-05-23T12:46:28.775Z,3.00
2023-05-23T12:48:56.319Z,2.70
2023-05-23T12:51:23.924Z,2.80
2023-05-23T12:53:51.513Z,2.70
2023-05-23T12:56:19.072Z,2.70
2023-05-23T12:58:46.623Z,3.00
2023-05-23T13:01:14.542Z,3.00
2023-05-23T13:03:42.383Z,2.70
2023-05-23T13:06:10.102Z,2.50
2023-05-23T13:08:37.727Z,2.70
2023-05-23T13:11:05.835Z,2.50
2023-05-23T13:13:33.967Z,2.60
2023-05-23T13:16:01.762Z,2.90
2023-05-23T13:18:29.417Z,3.20
2023-05-23T13:20:57.095Z,3.20
2023-05-23T13:23:26.022Z,3.10
2023-05-23T13:25:53.638Z,3.10
2023-05-23T13:28:21.262Z,2.70
2023-05-23T13:30:50.965Z,2.60
2023-05-23T13:33:18.737Z,3.10
2023-05-23T13:35:49.462Z,2.90
2023-05-23T13:38:20.533Z,2.70
2023-05-23T13:40:50.484Z,2.40
2023-05-23T13:43:19.045Z,2.50
2023-05-23T13:45:47.567Z,2.10
2023-05-23T13:48:15.265Z,2.60
2023-05-23T13:50:43.456Z,2.90
2023-05-23T13:53:15.464Z,2.40
2023-05-23T13:55:43.488Z,2.60
2023-05-23T13:58:14.237Z,2.50
2023-05-23T14:00:41.961Z,2.40
2023-05-23T14:03:10.058Z,2.30
2023-05-23T14:05:37.832Z,2.50
2023-05-23T14:08:05.594Z,2.70
2023-05-23T14:10:36.097Z,2.80
2023-05-23T14:13:03.843Z,2.90
2023-05-23T14:15:34.364Z,2.80
2023-05-23T14:18:02.254Z,2.20
2023-05-23T14:20:30.209Z,2.20
2023-05-23T14:22:57.835Z,2.40
2023-05-23T14:25:25.793Z,2.40
2023-05-23T14:27:53.464Z,2.10
2023-05-23T14:30:21.092Z,2.30
2023-05-23T14:32:48.846Z,2.00
2023-05-23T14:35:16.513Z,2.30
2023-05-23T14:37:45.449Z,2.30
2023-05-23T14:40:14.382Z,2.40
2023-05-23T14:42:42.830Z,2.70
2023-05-23T14:45:10.863Z,2.90
2023-05-23T14:47:39.125Z,2.40
2023-05-23T14:50:07.426Z,2.60
2023-05-23T14:52:34.926Z,3.20
2023-05-23T14:55:02.503Z,3.20
2023-05-23T14:57:30.049Z,3.30
2023-05-23T14:59:57.657Z,3.40
2023-05-23T15:02:25.250Z,3.30
2023-05-23T15:04:52.966Z,3.00
2023-05-23T15:07:20.509Z,3.20
2023-05-23T15:09:48.697Z,3.30
2023-05-23T15:12:16.447Z,2.90
2023-05-23T15:14:44.217Z,3.30
2023-05-23T15:17:13.242Z,2.90
2023-05-23T15:19:43.321Z,2.80
2023-05-23T15:22:18.742Z,3.10
2023-05-23T15:25:00.834Z,3.20
2023-05-23T15:27:28.391Z,3.20
2023-05-23T15:29:56.022Z,3.10
2023-05-23T15:32:23.666Z,3.00
2023-05-23T15:34:51.550Z,3.00
2023-05-23T15:37:19.192Z,3.40
2023-05-23T15:39:47.322Z,3.70
2023-05-23T15:42:16.878Z,3.10
2023-05-23T15:44:44.415Z,2.80
2023-05-23T15:47:12.106Z,3.10
2023-05-23T15:49:39.651Z,2.90
2023-05-23T15:52:07.181Z,3.40
2023-05-23T15:54:34.712Z,3.20
2023-05-23T15:57:03.549Z,3.00
2023-05-23T15:59:34.008Z,3.40
2023-05-23T16:02:05.509Z,3.40
2023-05-23T16:04:33.336Z,3.70
2023-05-23T16:07:00.897Z,3.10
2023-05-23T16:09:28.559Z,3.30
2023-05-23T16:11:57.328Z,3.30
2023-05-23T16:14:25.527Z,3.20
2023-05-23T16:16:53.203Z,3.30
2023-05-23T16:19:20.931Z,3.30
2023-05-23T16:21:50.508Z,2.80
2023-05-23T16:24:19.569Z,3.10
2023-05-23T16:26:49.344Z,3.30
2023-05-23T16:29:17.112Z,3.60
2023-05-23T16:31:44.733Z,3.00
2023-05-23T16:34:12.279Z,3.00
2023-05-23T16:36:39.823Z,3.20
2023-05-23T16:39:07.367Z,3.40
2023-05-23T16:41:34.935Z,3.20
2023-05-23T16:44:02.514Z,3.20
2023-05-23T16:46:30.163Z,3.50
2023-05-23T16:48:57.735Z,3.20
2023-05-23T16:51:25.903Z,3.00
2023-05-23T16:53:53.523Z,3.80
2023-05-23T16:56:23.237Z,3.80
2023-05-23T16:58:51.250Z,4.20
2023-05-23T17:01:20.141Z,4.30
2023-05-23T17:03:47.778Z,4.20
2023-05-23T17:06:15.459Z,4.40
2023-05-23T17:08:43.116Z,4.50
2023-05-23T17:11:10.888Z,4.70
2023-05-23T17:13:38.433Z,4.30
2023-05-23T17:16:05.997Z,4.80
2023-05-23T17:18:33.652Z,4.20
2023-05-23T17:21:01.255Z,3.80
2023-05-23T17:23:29.318Z,4.30
2023-05-23T17:25:56.885Z,3.90
2023-05-23T17:28:24.436Z,4.40
2023-05-23T17:30:53.359Z,4.10
2023-05-23T17:33:21.026Z,3.80
2023-05-23T17:35:48.661Z,4.00
2023-05-23T17:38:16.431Z,3.80
2023-05-23T17:40:44.208Z,4.10
2023-05-23T17:43:12.555Z,3.80
2023-05-23T17:45:40.154Z,4.20
2023-05-23T17:48:07.949Z,4.20
2023-05-23T17:50:38.288Z,4.20
2023-05-23T17:53:06.388Z,4.20
2023-05-23T17:55:33.968Z,4.70
2023-05-23T17:58:01.643Z,4.80
2023-05-23T18:00:29.281Z,4.50
2023-05-23T18:02:57.557Z,4.90
2023-05-23T18:05:25.234Z,4.40
2023-05-23T18:07:52.905Z,4.40
2023-05-23T18:10:20.564Z,4.70
2023-05-23T18:12:48.270Z,4.90
2023-05-23T18:15:16.087Z,5.30
2023-05-23T18:17:43.858Z,5.80
2023-05-23T18:20:13.000Z,5.00
2023-05-23T18:22:41.478Z,5.00
2023-05-23T18:25:09.598Z,5.70
2023-05-23T18:27:39.158Z,5.60
2023-05-23T18:30:08.226Z,4.70
2023-05-23T18:32:36.093Z,4.90
2023-05-23T18:35:03.793Z,4.40
2023-05-23T18:37:31.464Z,4.50
2023-05-23T18:40:00.581Z,4.10
2023-05-23T18:42:28.196Z,4.40
2023-05-23T18:44:55.948Z,4.30
2023-05-23T18:47:24.098Z,4.10
2023-05-23T18:49:52.223Z,4.40
2023-05-23T18:52:20.102Z,4.10
2023-05-23T18:54:54.131Z,4.60
2023-05-23T18:57:22.973Z,5.10
2023-05-23T18:59:51.747Z,5.10
2023-05-23T19:02:26.851Z,4.90
2023-05-23T19:04:55.443Z,5.00
2023-05-23T19:07:23.155Z,4.70
2023-05-23T19:09:50.986Z,5.10
2023-05-23T19:12:19.294Z,5.50
2023-05-23T19:14:47.219Z,5.70
2023-05-23T19:17:14.799Z,5.40
2023-05-23T19:19:43.606Z,5.20
2023-05-23T19:22:11.396Z,5.60
2023-05-23T19:24:40.286Z,6.90
2023-05-23T19:27:07.978Z,8.70
2023-05-23T19:29:35.659Z,9.40
2023-05-23T19:32:03.355Z,9.10
2023-05-23T19:34:31.053Z,8.30
2023-05-23T19:37:00.658Z,8.00
2023-05-23T19:39:28.182Z,8.40
2023-05-23T19:41:55.838Z,8.40
2023-05-23T19:44:23.442Z,7.50
2023-05-23T19:46:50.992Z,8.30
2023-05-23T19:49:19.573Z,7.70
2023-05-23T19:51:47.204Z,8.30
2023-05-23T19:54:15.573Z,7.60
2023-05-23T19:56:44.440Z,8.10
2023-05-23T19:59:12.808Z,8.50
2023-05-23T20:01:40.853Z,7.90
2023-05-23T20:04:12.815Z,8.00
2023-05-23T20:06:40.916Z,8.00
2023-05-23T20:09:08.562Z,8.00
2023-05-23T20:11:36.314Z,8.10
2023-05-23T20:14:04.031Z,8.70
2023-05-23T20:16:32.032Z,8.50
2023-05-23T20:18:59.635Z,9.10
2023-05-23T20:21:27.744Z,8.50
2023-05-23T20:23:55.331Z,8.60
2023-05-23T20:26:22.879Z,8.40
2023-05-23T20:28:50.613Z,7.50
2023-05-23T20:31:19.787Z,7.20
2023-05-23T20:33:48.011Z,6.20
2023-05-23T20:36:19.710Z,7.10
2023-05-23T20:41:15.574Z,6.70
2023-05-23T20:43:44.765Z,6.70
2023-05-23T20:46:13.792Z,7.00
2023-05-23T20:48:42.035Z,6.60
2023-05-23T20:51:09.699Z,7.40
2023-05-23T20:53:39.114Z,6.80
2023-05-23T20:56:10.397Z,6.40
2023-05-23T20:58:38.202Z,7.00
2023-05-23T21:01:06.469Z,6.60
2023-05-23T21:03:34.080Z,6.90
2023-05-23T21:06:01.665Z,6.40
2023-05-23T21:08:29.194Z,7.10
2023-05-23T21:10:56.832Z,6.50
2023-05-23T21:13:24.352Z,6.90
2023-05-23T21:15:51.913Z,6.70
2023-05-23T21:18:19.550Z,6.90
2023-05-23T21:20:47.208Z,7.00
2023-05-23T21:23:14.796Z,6.70
2023-05-23T21:25:42.519Z,6.90
2023-05-23T21:28:10.149Z,7.30
2023-05-23T21:30:38.211Z,7.80
2023-05-23T21:33:06.086Z,7.80
2023-05-23T21:35:36.674Z,7.90
2023-05-23T21:38:04.303Z,8.20
2023-05-23T21:40:32.173Z,7.70
2023-05-23T21:42:59.900Z,8.20
2023-05-23T21:45:30.592Z,7.90
2023-05-23T21:47:58.141Z,7.40
2023-05-23T21:50:25.701Z,7.10
2023-05-23T21:52:53.252Z,8.40
2023-05-23T21:55:21.152Z,7.90
2023-05-23T21:57:48.995Z,8.20
2023-05-23T22:00:19.734Z,8.00
2023-05-23T22:02:48.520Z,8.40
2023-05-23T22:05:16.460Z,7.80
2023-05-23T22:07:44.034Z,7.70
2023-05-23T22:10:12.508Z,7.80
2023-05-23T22:12:40.295Z,7.50
2023-05-23T22:15:08.578Z,8.10
2023-05-23T22:17:36.768Z,7.40
2023-05-23T22:20:05.529Z,7.20
2023-05-23T22:22:33.076Z,7.50
2023-05-23T22:25:00.825Z,7.10
2023-05-23T22:27:28.451Z,7.10
2023-05-23T22:29:57.409Z,6.70
2023-05-23T22:32:25.132Z,7.70
2023-05-23T22:34:52.867Z,7.70
2023-05-23T22:37:20.461Z,7.20
2023-05-23T22:39:47.994Z,7.70
2023-05-23T22:42:15.546Z,6.80
2023-05-23T22:44:43.057Z,6.50
2023-05-23T22:47:13.832Z,7.20
2023-05-23T22:49:42.636Z,6.90
2023-05-23T22:52:10.158Z,7.60
2023-05-23T22:54:37.761Z,7.30
2023-05-23T22:57:05.691Z,7.30
2023-05-23T22:59:33.270Z,7.30
2023-05-23T23:02:00.962Z,6.00
2023-05-23T23:04:31.086Z,6.80
2023-05-23T23:06:59.480Z,6.60
2023-05-23T23:09:27.194Z,7.00
2023-05-23T23:11:54.905Z,6.60
2023-05-23T23:14:22.554Z,7.40
2023-05-23T23:16:50.739Z,8.00
2023-05-23T23:19:19.039Z,7.50
2023-05-23T23:21:46.645Z,7.80
2023-05-23T23:24:14.248Z,7.50
2023-05-23T23:26:41.852Z,7.60
2023-05-23T23:29:09.454Z,7.00
2023-05-23T23:31:37.119Z,7.30
2023-05-23T23:34:04.721Z,7.90
2023-05-23T23:36:32.308Z,7.60
2023-05-23T23:39:01.162Z,8.30
2023-05-23T23:41:28.848Z,7.50
2023-05-23T23:43:57.003Z,7.90
2023-05-23T23:46:24.614Z,7.90
2023-05-23T23:48:53.659Z,7.80
2023-05-23T23:51:21.322Z,8.20
2023-05-23T23:53:51.679Z,7.80
2023-05-23T23:56:22.913Z,7.60
2023-05-23T23:58:51.101Z,7.80
